createdAt,value
2022-10-30T00:01:31.168Z,15.20
2022-10-30T00:04:01.714Z,15.10
2022-10-30T00:06:29.788Z,15.10
2022-10-30T00:08:57.787Z,15.10
2022-10-30T00:11:25.933Z,15.00
2022-10-30T00:13:56.623Z,15.00
2022-10-30T00:16:24.697Z,15.00
2022-10-30T00:18:53.982Z,15.00
2022-10-30T00:21:21.960Z,15.00
2022-10-30T00:23:55.211Z,14.90
2022-10-30T00:26:25.658Z,14.90
2022-10-30T00:28:55.122Z,14.80
2022-10-30T00:31:24.595Z,14.80
2022-10-30T00:33:53.773Z,14.70
2022-10-30T00:36:23.027Z,14.70
2022-10-30T00:38:51.248Z,14.60
2022-10-30T00:41:24.741Z,14.60
2022-10-30T00:43:53.277Z,14.60
2022-10-30T00:46:29.651Z,14.60
2022-10-30T00:49:01.729Z,14.60
2022-10-30T00:51:31.792Z,14.50
2022-10-30T00:54:03.624Z,14.50
2022-10-30T00:56:32.706Z,14.40
2022-10-30T00:59:04.326Z,14.40
2022-10-30T01:01:38.666Z,14.40
2022-10-30T01:04:08.046Z,14.50
2022-10-30T01:06:40.940Z,14.60
2022-10-30T01:09:09.317Z,14.80
2022-10-30T01:11:40.525Z,14.80
2022-10-30T01:14:10.894Z,14.80
2022-10-30T01:16:56.095Z,14.80
2022-10-30T01:19:29.332Z,14.80
2022-10-30T01:22:22.481Z,14.80
2022-10-30T01:25:04.681Z,14.90
2022-10-30T01:27:40.290Z,14.90
2022-10-30T01:30:19.717Z,14.80
2022-10-30T01:33:04.840Z,14.90
2022-10-30T01:35:38.922Z,15.00
2022-10-30T01:38:13.551Z,15.00
2022-10-30T01:40:41.660Z,15.10
2022-10-30T01:43:10.548Z,15.00
2022-10-30T01:46:17.112Z,15.00
2022-10-30T01:49:12.691Z,14.90
2022-10-30T01:51:55.848Z,14.90
2022-10-30T01:54:36.013Z,14.90
2022-10-30T01:57:10.803Z,14.90
2022-10-30T01:59:44.368Z,15.00
2022-10-30T02:02:15.155Z,15.10
2022-10-30T02:04:45.597Z,15.20
2022-10-30T02:07:13.998Z,15.30
2022-10-30T02:09:42.206Z,15.30
2022-10-30T02:12:10.970Z,15.30
2022-10-30T02:14:44.190Z,15.30
2022-10-30T02:17:13.420Z,15.20
2022-10-30T02:19:41.420Z,15.20
2022-10-30T02:22:11.128Z,15.20
2022-10-30T02:24:39.428Z,15.20
2022-10-30T02:27:07.428Z,15.30
2022-10-30T02:29:35.448Z,15.30
2022-10-30T02:32:04.082Z,15.20
2022-10-30T02:34:32.135Z,15.20
2022-10-30T02:37:01.400Z,15.20
2022-10-30T02:39:30.807Z,15.10
2022-10-30T02:41:58.805Z,15.10
2022-10-30T02:44:28.962Z,15.00
2022-10-30T02:46:56.961Z,14.90
2022-10-30T02:49:25.130Z,14.70
2022-10-30T02:51:53.155Z,14.60
2022-10-30T02:54:21.111Z,14.60
2022-10-30T02:56:50.444Z,14.60
2022-10-30T02:59:18.571Z,14.50
2022-10-30T03:01:46.738Z,14.50
2022-10-30T03:04:14.996Z,14.60
2022-10-30T03:06:43.064Z,14.70
2022-10-30T03:09:11.071Z,14.80
2022-10-30T03:11:39.085Z,14.80
2022-10-30T03:14:11.739Z,14.70
2022-10-30T03:16:39.937Z,14.70
2022-10-30T03:19:08.021Z,14.70
2022-10-30T03:21:36.027Z,14.70
2022-10-30T03:24:07.204Z,14.70
2022-10-30T03:26:35.209Z,14.60
2022-10-30T03:29:03.308Z,14.50
2022-10-30T03:31:33.418Z,14.40
2022-10-30T03:34:01.375Z,14.30
2022-10-30T03:36:29.397Z,14.30
2022-10-30T03:38:57.806Z,14.30
2022-10-30T03:41:25.936Z,14.40
2022-10-30T03:43:53.982Z,14.30
2022-10-30T03:46:21.981Z,14.30
2022-10-30T03:48:51.690Z,14.30
2022-10-30T03:51:22.541Z,14.40
2022-10-30T03:53:50.478Z,14.40
2022-10-30T03:56:19.856Z,14.40
2022-10-30T03:58:50.958Z,14.30
2022-10-30T04:01:21.024Z,14.40
2022-10-30T04:03:49.166Z,14.30
2022-10-30T04:06:18.583Z,14.30
2022-10-30T04:08:49.087Z,14.30
2022-10-30T04:11:17.182Z,14.30
2022-10-30T04:13:45.208Z,14.30
2022-10-30T04:16:13.208Z,14.30
2022-10-30T04:18:41.209Z,14.20
2022-10-30T04:21:12.064Z,14.20
2022-10-30T04:23:41.487Z,14.10
2022-10-30T04:26:09.403Z,14.10
2022-10-30T04:28:37.430Z,14.10
2022-10-30T04:31:05.512Z,14.10
2022-10-30T04:33:33.500Z,14.00
2022-10-30T04:36:02.511Z,14.00
2022-10-30T04:38:30.857Z,13.90
2022-10-30T04:41:00.232Z,13.80
2022-10-30T04:43:29.843Z,13.80
2022-10-30T04:45:57.833Z,13.80
2022-10-30T04:48:25.962Z,13.90
2022-10-30T04:50:54.008Z,13.70
2022-10-30T04:53:22.155Z,13.60
2022-10-30T04:55:54.653Z,13.60
2022-10-30T04:58:26.252Z,13.60
2022-10-30T05:00:58.968Z,13.40
2022-10-30T05:03:30.289Z,13.40
2022-10-30T05:06:00.749Z,13.30
2022-10-30T05:08:29.186Z,13.20
2022-10-30T05:10:57.862Z,13.00
2022-10-30T05:13:27.336Z,12.90
2022-10-30T05:15:56.045Z,12.90
2022-10-30T05:18:24.073Z,12.90
2022-10-30T05:20:52.079Z,13.10
2022-10-30T05:23:20.125Z,13.10
2022-10-30T05:25:48.104Z,13.20
2022-10-30T05:28:16.389Z,13.10
2022-10-30T05:30:45.698Z,13.20
2022-10-30T05:33:15.947Z,13.30
2022-10-30T05:35:46.710Z,13.30
2022-10-30T05:38:15.030Z,13.30
2022-10-30T05:40:43.011Z,13.30
2022-10-30T05:43:13.054Z,13.20
2022-10-30T05:45:40.992Z,13.20
2022-10-30T05:48:10.496Z,13.10
2022-10-30T05:50:40.377Z,13.20
2022-10-30T05:53:08.436Z,13.10
2022-10-30T05:55:36.627Z,13.10
2022-10-30T05:58:08.368Z,13.10
2022-10-30T06:00:39.220Z,13.10
2022-10-30T06:03:09.061Z,13.00
2022-10-30T06:05:38.971Z,13.00
2022-10-30T06:08:10.617Z,12.90
2022-10-30T06:10:38.842Z,13.00
2022-10-30T06:13:08.426Z,13.00
2022-10-30T06:15:36.410Z,13.00
2022-10-30T06:18:04.498Z,13.10
2022-10-30T06:20:32.999Z,13.10
2022-10-30T06:23:04.079Z,13.10
2022-10-30T06:25:37.888Z,13.10
2022-10-30T06:28:10.249Z,13.20
2022-10-30T06:30:38.280Z,13.30
2022-10-30T06:33:06.869Z,13.40
2022-10-30T06:35:34.959Z,13.60
2022-10-30T06:38:05.004Z,13.60
2022-10-30T06:40:33.028Z,13.80
2022-10-30T06:43:01.333Z,13.90
2022-10-30T06:45:29.698Z,13.90
2022-10-30T06:47:58.115Z,14.00
2022-10-30T06:50:26.656Z,14.20
2022-10-30T06:52:55.561Z,14.30
2022-10-30T06:55:25.836Z,14.40
2022-10-30T06:57:59.813Z,14.50
2022-10-30T07:00:28.042Z,14.60
2022-10-30T07:02:57.800Z,14.70
2022-10-30T07:05:26.131Z,14.90
2022-10-30T07:07:56.437Z,14.90
2022-10-30T07:10:25.954Z,15.10
2022-10-30T07:12:55.596Z,15.20
2022-10-30T07:15:24.129Z,15.40
2022-10-30T07:17:57.033Z,15.50
2022-10-30T07:20:25.898Z,15.60
2022-10-30T07:22:53.969Z,15.70
2022-10-30T07:25:21.951Z,15.80
2022-10-30T07:27:53.222Z,15.90
2022-10-30T07:33:03.069Z,16.00
2022-10-30T07:35:32.481Z,16.10
2022-10-30T07:38:04.387Z,16.10
2022-10-30T07:40:32.639Z,16.10
2022-10-30T07:43:04.572Z,16.20
2022-10-30T07:45:33.199Z,16.20
2022-10-30T07:48:01.571Z,16.20
2022-10-30T07:50:30.419Z,16.20
2022-10-30T07:52:58.488Z,16.30
2022-10-30T07:55:26.555Z,16.30
2022-10-30T07:57:54.765Z,16.30
2022-10-30T08:00:24.219Z,16.30
2022-10-30T08:02:52.859Z,16.30
2022-10-30T08:05:23.266Z,16.40
2022-10-30T08:07:55.366Z,16.30
2022-10-30T08:10:23.582Z,16.30
2022-10-30T08:12:56.304Z,16.40
2022-10-30T08:15:26.137Z,16.40
2022-10-30T08:17:54.578Z,16.40
2022-10-30T08:20:25.023Z,16.40
2022-10-30T08:22:54.323Z,16.40
2022-10-30T08:25:24.270Z,16.40
2022-10-30T08:27:53.768Z,16.40
2022-10-30T08:30:22.120Z,16.40
2022-10-30T08:32:51.486Z,16.40
2022-10-30T08:35:20.205Z,16.40
2022-10-30T08:37:48.620Z,16.60
2022-10-30T08:40:16.856Z,16.70
2022-10-30T08:42:50.907Z,16.70
2022-10-30T08:45:19.086Z,16.80
2022-10-30T08:47:47.232Z,16.90
2022-10-30T08:50:16.797Z,17.00
2022-10-30T08:52:44.861Z,17.00
2022-10-30T08:55:12.836Z,17.00
2022-10-30T08:57:40.907Z,17.00
2022-10-30T09:00:11.576Z,17.00
2022-10-30T09:02:40.654Z,16.90
2022-10-30T09:05:09.701Z,17.00
2022-10-30T09:07:39.224Z,17.00
2022-10-30T09:10:08.230Z,17.00
2022-10-30T09:12:36.221Z,17.10
2022-10-30T09:15:05.284Z,17.20
2022-10-30T09:17:33.429Z,17.30
2022-10-30T09:20:01.489Z,17.40
2022-10-30T09:22:29.697Z,17.50
2022-10-30T09:24:59.155Z,17.50
2022-10-30T09:27:27.624Z,17.50
2022-10-30T09:29:55.673Z,17.50
2022-10-30T09:32:23.776Z,17.50
2022-10-30T09:34:51.762Z,17.50
2022-10-30T09:37:20.188Z,17.60
2022-10-30T09:39:48.284Z,17.70
2022-10-30T09:42:43.790Z,17.70
2022-10-30T09:45:35.208Z,17.70
2022-10-30T09:48:30.455Z,17.70
2022-10-30T09:51:10.431Z,17.70
2022-10-30T09:53:47.088Z,17.80
2022-10-30T09:56:20.406Z,17.90
2022-10-30T09:59:02.137Z,18.00
2022-10-30T10:01:39.337Z,18.10
2022-10-30T10:04:23.820Z,18.20
2022-10-30T10:06:58.930Z,18.20
2022-10-30T10:09:29.589Z,18.40
2022-10-30T10:12:01.514Z,18.40
2022-10-30T10:14:36.055Z,18.50
2022-10-30T10:17:06.689Z,18.50
2022-10-30T10:19:39.899Z,18.60
2022-10-30T10:22:18.506Z,18.70
2022-10-30T10:24:47.617Z,18.70
2022-10-30T10:27:33.763Z,18.80
2022-10-30T10:30:07.837Z,18.80
2022-10-30T10:32:50.702Z,18.90
2022-10-30T10:35:51.262Z,19.00
2022-10-30T10:38:31.733Z,19.00
2022-10-30T10:41:09.428Z,19.10
2022-10-30T10:43:46.900Z,19.20
2022-10-30T10:46:33.613Z,19.30
2022-10-30T10:49:16.002Z,19.40
2022-10-30T10:51:48.756Z,19.50
2022-10-30T10:54:22.437Z,19.60
2022-10-30T10:56:52.380Z,19.80
2022-10-30T10:59:24.059Z,19.80
2022-10-30T11:02:01.520Z,19.90
2022-10-30T11:04:36.851Z,19.90
2022-10-30T11:07:19.464Z,20.00
2022-10-30T11:09:49.394Z,20.10
2022-10-30T11:12:17.873Z,20.20
2022-10-30T11:14:45.966Z,20.30
2022-10-30T11:17:33.340Z,20.30
2022-10-30T11:20:12.854Z,20.40
2022-10-30T11:22:50.515Z,20.40
2022-10-30T11:25:26.905Z,20.50
2022-10-30T11:27:58.350Z,20.60
2022-10-30T11:30:29.041Z,20.70
2022-10-30T11:32:59.917Z,20.80
2022-10-30T11:35:28.236Z,20.80
2022-10-30T11:38:14.310Z,20.80
2022-10-30T11:40:49.652Z,20.80
2022-10-30T11:43:23.516Z,20.90
2022-10-30T11:45:52.240Z,20.90
2022-10-30T11:48:27.594Z,20.90
2022-10-30T11:51:00.126Z,20.90
2022-10-30T11:53:34.090Z,21.00
2022-10-30T11:56:05.047Z,21.00
2022-10-30T11:58:37.242Z,21.00
2022-10-30T12:01:09.083Z,21.10
2022-10-30T12:03:40.532Z,21.20
2022-10-30T12:06:10.245Z,21.30
2022-10-30T12:08:38.590Z,21.40
2022-10-30T12:11:07.653Z,21.30
2022-10-30T12:13:39.761Z,21.40
2022-10-30T12:16:12.598Z,21.40
2022-10-30T12:18:42.878Z,21.50
2022-10-30T12:21:12.070Z,21.50
2022-10-30T12:23:41.021Z,21.60
2022-10-30T12:26:13.919Z,21.60
2022-10-30T12:28:48.354Z,21.70
2022-10-30T12:31:20.733Z,21.80
2022-10-30T12:36:45.949Z,22.00
2022-10-30T12:39:19.139Z,21.90
2022-10-30T12:41:54.428Z,22.00
2022-10-30T12:44:26.590Z,22.00
2022-10-30T12:47:01.255Z,22.00
2022-10-30T12:49:36.916Z,22.10
2022-10-30T12:52:09.905Z,22.20
2022-10-30T12:54:44.065Z,22.20
2022-10-30T12:57:16.293Z,22.20
2022-10-30T12:59:52.794Z,22.20
2022-10-30T13:02:30.810Z,22.20
2022-10-30T13:05:05.694Z,22.20
2022-10-30T13:07:39.811Z,22.20
2022-10-30T13:10:23.034Z,22.20
2022-10-30T13:12:56.439Z,22.10
2022-10-30T13:15:29.039Z,22.10
2022-10-30T13:17:59.206Z,22.10
2022-10-30T13:20:31.821Z,21.90
2022-10-30T13:23:06.558Z,21.70
2022-10-30T13:25:42.856Z,21.60
2022-10-30T13:28:21.527Z,21.40
2022-10-30T13:31:10.636Z,21.30
2022-10-30T13:33:43.920Z,21.10
2022-10-30T13:36:18.725Z,21.10
2022-10-30T13:38:53.525Z,21.00
2022-10-30T13:41:32.100Z,21.00
2022-10-30T13:44:08.691Z,21.00
2022-10-30T13:46:54.063Z,21.00
2022-10-30T13:49:39.624Z,21.00
2022-10-30T13:52:15.460Z,20.80
2022-10-30T13:54:47.724Z,20.70
2022-10-30T13:57:20.363Z,20.60
2022-10-30T14:00:00.383Z,20.50
2022-10-30T14:02:41.191Z,20.40
2022-10-30T14:05:24.381Z,20.40
2022-10-30T14:08:06.313Z,20.40
2022-10-30T14:10:45.624Z,20.40
2022-10-30T14:13:18.615Z,20.30
2022-10-30T14:15:48.081Z,20.20
2022-10-30T14:18:47.243Z,20.00
2022-10-30T14:21:40.957Z,19.90
2022-10-30T14:24:16.335Z,19.70
2022-10-30T14:26:53.395Z,19.50
2022-10-30T14:29:47.829Z,19.40
2022-10-30T14:32:49.429Z,19.30
2022-10-30T14:35:37.431Z,19.20
2022-10-30T14:38:27.572Z,19.00
2022-10-30T14:41:36.684Z,18.90
2022-10-30T14:44:36.844Z,18.80
2022-10-30T14:47:31.309Z,18.70
2022-10-30T14:50:03.862Z,18.70
2022-10-30T14:52:43.858Z,18.60
2022-10-30T14:55:28.156Z,18.50
2022-10-30T14:58:18.302Z,18.40
2022-10-30T15:00:46.544Z,18.30
2022-10-30T15:03:36.807Z,18.20
2022-10-30T15:06:15.015Z,18.10
2022-10-30T15:09:00.600Z,18.10
2022-10-30T15:11:57.878Z,18.00
2022-10-30T15:17:27.395Z,17.80
2022-10-30T15:19:55.737Z,17.70
2022-10-30T15:22:27.411Z,17.70
2022-10-30T15:24:55.723Z,17.70
2022-10-30T15:27:28.516Z,17.60
2022-10-30T15:30:05.183Z,17.60
2022-10-30T15:32:35.006Z,17.50
2022-10-30T15:35:06.149Z,17.40
2022-10-30T15:37:34.164Z,17.40
2022-10-30T15:40:11.893Z,17.30
2022-10-30T15:42:40.656Z,17.20
2022-10-30T15:45:17.152Z,17.10
2022-10-30T15:47:48.193Z,16.90
2022-10-30T15:50:19.971Z,16.90
2022-10-30T15:52:48.135Z,16.90
2022-10-30T15:55:18.172Z,16.80
2022-10-30T15:58:13.269Z,16.70
2022-10-30T16:00:39.626Z,16.70
2022-10-30T16:03:17.163Z,16.60
2022-10-30T16:05:48.751Z,16.60
2022-10-30T16:08:20.738Z,16.60
2022-10-30T16:10:51.009Z,16.60
2022-10-30T16:13:23.009Z,16.50
2022-10-30T16:15:52.553Z,16.40
2022-10-30T16:18:24.830Z,16.40
2022-10-30T16:20:55.106Z,16.40
2022-10-30T16:23:24.361Z,16.40
2022-10-30T16:25:56.211Z,16.40
2022-10-30T16:28:30.753Z,16.40
2022-10-30T16:31:02.428Z,16.40
2022-10-30T16:33:33.335Z,16.60
2022-10-30T16:36:03.206Z,16.60
2022-10-30T16:38:35.187Z,16.70
2022-10-30T16:41:05.553Z,16.90
2022-10-30T16:43:37.675Z,17.00
2022-10-30T16:46:34.522Z,17.10
2022-10-30T16:49:06.769Z,17.20
2022-10-30T16:51:34.844Z,17.50
2022-10-30T16:54:03.058Z,17.60
2022-10-30T16:56:33.034Z,17.50
2022-10-30T16:59:09.177Z,17.50
2022-10-30T17:01:40.304Z,17.40
2022-10-30T17:04:11.884Z,17.30
2022-10-30T17:06:45.316Z,17.10
2022-10-30T17:09:25.677Z,17.10
2022-10-30T17:12:10.479Z,17.20
2022-10-30T17:15:04.307Z,17.20
2022-10-30T17:17:36.324Z,17.10
2022-10-30T17:20:07.712Z,16.90
2022-10-30T17:22:35.921Z,16.80
2022-10-30T17:25:17.219Z,16.70
2022-10-30T17:27:48.233Z,16.60
2022-10-30T17:30:40.672Z,16.50
2022-10-30T17:33:36.200Z,16.40
2022-10-30T17:36:04.977Z,16.40
2022-10-30T17:38:32.980Z,16.50
2022-10-30T17:41:01.302Z,16.50
2022-10-30T17:43:34.458Z,16.60
2022-10-30T17:46:04.673Z,16.60
2022-10-30T17:48:35.226Z,16.70
2022-10-30T17:51:03.343Z,16.60
2022-10-30T17:53:34.217Z,16.70
2022-10-30T17:56:06.131Z,16.60
2022-10-30T17:58:34.423Z,16.50
2022-10-30T18:01:02.563Z,16.40
2022-10-30T18:03:31.920Z,16.40
2022-10-30T18:06:03.112Z,16.30
2022-10-30T18:08:33.881Z,16.10
2022-10-30T18:11:02.178Z,16.10
2022-10-30T18:13:33.453Z,16.10
2022-10-30T18:16:01.516Z,16.00
2022-10-30T18:18:29.527Z,15.90
2022-10-30T18:20:57.535Z,15.90
2022-10-30T18:26:16.867Z,15.70
2022-10-30T18:28:48.239Z,15.70
2022-10-30T18:31:20.622Z,15.70
2022-10-30T18:33:49.039Z,15.80
2022-10-30T18:36:19.394Z,15.90
2022-10-30T18:38:49.063Z,15.90
2022-10-30T18:41:22.155Z,15.90
2022-10-30T18:43:50.585Z,15.90
2022-10-30T18:46:18.722Z,15.80
2022-10-30T18:48:46.720Z,15.80
2022-10-30T18:51:18.089Z,15.80
2022-10-30T18:53:51.770Z,15.80
2022-10-30T18:56:22.998Z,15.70
2022-10-30T18:58:54.990Z,15.70
2022-10-30T19:01:27.277Z,15.60
2022-10-30T19:03:55.462Z,15.70
2022-10-30T19:06:25.227Z,15.60
2022-10-30T19:08:53.365Z,15.50
2022-10-30T19:11:25.136Z,15.50
2022-10-30T19:13:55.595Z,15.40
2022-10-30T19:16:27.112Z,15.40
2022-10-30T19:18:55.226Z,15.30
2022-10-30T19:21:25.523Z,15.30
2022-10-30T19:23:53.791Z,15.30
2022-10-30T19:26:23.161Z,15.20
2022-10-30T19:28:51.238Z,15.20
2022-10-30T19:31:20.376Z,15.20
2022-10-30T19:33:54.490Z,15.20
2022-10-30T19:36:30.168Z,15.10
2022-10-30T19:38:58.350Z,15.20
2022-10-30T19:43:56.789Z,15.20
2022-10-30T19:46:24.861Z,15.20
2022-10-30T19:48:57.696Z,15.10
2022-10-30T19:51:26.397Z,15.00
2022-10-30T19:53:54.398Z,14.90
2022-10-30T19:56:25.505Z,14.90
2022-10-30T19:58:54.901Z,14.90
2022-10-30T20:01:23.057Z,14.90
2022-10-30T20:03:54.130Z,14.90
2022-10-30T20:06:22.897Z,14.80
2022-10-30T20:08:50.979Z,14.70
2022-10-30T20:11:19.143Z,14.70
2022-10-30T20:13:50.600Z,14.70
2022-10-30T20:16:23.203Z,14.60
2022-10-30T20:18:51.384Z,14.60
2022-10-30T20:21:20.914Z,14.60
2022-10-30T20:23:49.024Z,14.60
2022-10-30T20:26:25.223Z,14.50
2022-10-30T20:28:53.870Z,14.60
2022-10-30T20:31:26.036Z,14.50
2022-10-30T20:33:54.014Z,14.40
2022-10-30T20:36:22.083Z,14.40
2022-10-30T20:38:50.057Z,14.30
2022-10-30T20:41:22.287Z,14.20
2022-10-30T20:43:51.053Z,14.10
2022-10-30T20:46:20.272Z,14.00
2022-10-30T20:48:49.761Z,14.00
2022-10-30T20:51:18.039Z,13.90
2022-10-30T20:53:46.315Z,13.80
2022-10-30T20:56:14.528Z,13.80
2022-10-30T20:58:43.019Z,13.80
2022-10-30T21:01:11.727Z,13.70
2022-10-30T21:03:39.846Z,13.80
2022-10-30T21:06:12.622Z,13.80
2022-10-30T21:08:40.653Z,13.80
2022-10-30T21:11:09.036Z,13.80
2022-10-30T21:13:37.905Z,13.90
2022-10-30T21:16:08.409Z,13.80
2022-10-30T21:18:36.716Z,13.60
2022-10-30T21:21:06.469Z,13.60
2022-10-30T21:23:38.135Z,13.40
2022-10-30T21:26:09.118Z,13.30
2022-10-30T21:28:37.108Z,13.20
2022-10-30T21:31:06.933Z,13.20
2022-10-30T21:33:38.751Z,13.10
2022-10-30T21:36:12.470Z,13.10
2022-10-30T21:38:44.341Z,13.10
2022-10-30T21:41:14.258Z,13.10
2022-10-30T21:43:42.269Z,13.00
2022-10-30T21:46:11.475Z,13.10
2022-10-30T21:48:39.960Z,13.20
2022-10-30T21:51:10.010Z,13.10
2022-10-30T21:53:38.372Z,12.90
2022-10-30T21:56:10.858Z,12.70
2022-10-30T21:58:38.925Z,12.60
2022-10-30T22:01:07.584Z,12.50
2022-10-30T22:03:35.694Z,12.50
2022-10-30T22:06:08.059Z,12.40
2022-10-30T22:08:36.220Z,12.40
2022-10-30T22:11:05.474Z,12.30
2022-10-30T22:13:35.137Z,12.30
2022-10-30T22:16:06.271Z,12.30
2022-10-30T22:18:34.560Z,12.30
2022-10-30T22:21:03.993Z,12.50
2022-10-30T22:23:32.277Z,12.60
2022-10-30T22:26:02.063Z,12.70
2022-10-30T22:28:31.423Z,12.90
2022-10-30T22:31:04.668Z,13.00
2022-10-30T22:33:33.643Z,13.10
2022-10-30T22:36:06.102Z,13.20
2022-10-30T22:38:34.547Z,13.10
2022-10-30T22:41:13.851Z,13.10
2022-10-30T22:43:42.804Z,13.20
2022-10-30T22:46:12.773Z,13.20
2022-10-30T22:48:40.940Z,13.10
2022-10-30T22:51:15.069Z,13.10
2022-10-30T22:53:45.068Z,13.10
2022-10-30T22:56:15.960Z,13.10
2022-10-30T22:58:44.957Z,13.00
2022-10-30T23:01:16.040Z,13.20
2022-10-30T23:03:44.727Z,13.30
2022-10-30T23:06:13.548Z,13.30
2022-10-30T23:08:41.599Z,13.20
2022-10-30T23:11:09.854Z,13.10
2022-10-30T23:13:40.419Z,13.00
2022-10-30T23:16:11.821Z,13.00
2022-10-30T23:18:46.895Z,13.00
2022-10-30T23:21:17.198Z,13.00
2022-10-30T23:23:47.241Z,13.10
2022-10-30T23:26:18.463Z,13.20
2022-10-30T23:28:47.689Z,13.10
2022-10-30T23:31:22.722Z,13.10
2022-10-30T23:33:53.802Z,13.10
2022-10-30T23:36:22.186Z,13.00
2022-10-30T23:38:53.042Z,13.00
2022-10-30T23:41:21.115Z,12.90
2022-10-30T23:43:49.462Z,12.90
2022-10-30T23:46:17.541Z,12.90
2022-10-30T23:48:45.539Z,12.90
2022-10-30T23:51:14.987Z,12.80
2022-10-30T23:53:44.360Z,12.80
2022-10-30T23:56:12.867Z,12.70
2022-10-30T23:58:43.436Z,12.60
